createdAt,value
2022-11-05T00:00:38.753Z,92.27
2022-11-05T00:03:24.585Z,92.43
2022-11-05T00:06:12.579Z,92.43
2022-11-05T00:09:00.349Z,92.50
2022-11-05T00:11:46.298Z,92.61
2022-11-05T00:14:32.467Z,92.26
2022-11-05T00:16:59.483Z,92.02
2022-11-05T00:19:26.546Z,91.89
2022-11-05T00:22:12.926Z,91.85
2022-11-05T00:24:58.737Z,91.77
2022-11-05T00:27:25.768Z,91.58
2022-11-05T00:29:52.868Z,91.40
2022-11-05T00:32:19.940Z,91.12
2022-11-05T00:34:46.896Z,91.22
2022-11-05T00:37:13.814Z,91.36
2022-11-05T00:39:40.853Z,91.36
2022-11-05T00:42:26.725Z,91.31
2022-11-05T00:45:03.073Z,90.96
2022-11-05T00:47:50.857Z,91.26
2022-11-05T00:50:20.653Z,91.13
2022-11-05T00:52:56.954Z,91.39
2022-11-05T00:55:28.468Z,91.38
2022-11-05T00:57:57.654Z,91.49
2022-11-05T01:00:28.879Z,91.54
2022-11-05T01:03:03.011Z,91.35
2022-11-05T01:05:31.946Z,91.76
2022-11-05T01:08:01.446Z,91.85
2022-11-05T01:10:29.271Z,92.16
2022-11-05T01:12:57.240Z,92.19
2022-11-05T01:15:24.723Z,92.20
2022-11-05T01:17:52.482Z,92.10
2022-11-05T01:20:19.656Z,91.92
2022-11-05T01:22:46.722Z,91.80
2022-11-05T01:25:14.029Z,91.64
2022-11-05T01:27:41.044Z,91.38
2022-11-05T01:30:09.754Z,91.79
2022-11-05T01:32:37.780Z,91.78
2022-11-05T01:35:07.538Z,91.97
2022-11-05T01:37:36.339Z,91.97
2022-11-05T01:40:06.776Z,91.99
2022-11-05T01:42:34.469Z,91.59
2022-11-05T01:45:12.412Z,91.87
2022-11-05T01:48:01.398Z,92.11
2022-11-05T01:50:34.555Z,92.09
2022-11-05T01:53:36.247Z,92.22
2022-11-05T01:56:43.262Z,92.30
2022-11-05T01:59:24.912Z,92.18
2022-11-05T02:01:53.571Z,92.21
2022-11-05T02:04:32.474Z,92.40
2022-11-05T02:07:00.136Z,92.52
2022-11-05T02:09:41.219Z,92.66
2022-11-05T02:12:09.942Z,93.00
2022-11-05T02:14:36.957Z,92.88
2022-11-05T02:17:37.662Z,92.80
2022-11-05T02:20:56.217Z,92.66
2022-11-05T02:23:54.598Z,92.94
2022-11-05T02:27:25.803Z,92.99
2022-11-05T02:30:05.192Z,92.94
2022-11-05T02:33:17.843Z,92.89
2022-11-05T02:36:03.607Z,92.89
2022-11-05T02:38:51.165Z,93.12
2022-11-05T02:42:02.050Z,92.98
2022-11-05T02:45:21.285Z,92.96
2022-11-05T02:48:14.203Z,93.13
2022-11-05T02:51:00.565Z,93.16
2022-11-05T02:53:44.885Z,93.20
2022-11-05T02:56:23.983Z,93.25
2022-11-05T02:58:50.994Z,93.33
2022-11-05T03:01:18.225Z,93.18
2022-11-05T03:04:09.433Z,93.12
2022-11-05T03:07:03.640Z,92.99
2022-11-05T03:10:07.072Z,93.03
2022-11-05T03:12:47.739Z,93.25
2022-11-05T03:15:44.092Z,93.24
2022-11-05T03:18:42.868Z,93.45
2022-11-05T03:21:21.825Z,93.51
2022-11-05T03:24:15.608Z,93.64
2022-11-05T03:26:54.264Z,93.38
2022-11-05T03:29:33.520Z,93.84
2022-11-05T03:32:04.698Z,93.67
2022-11-05T03:34:38.726Z,93.59
2022-11-05T03:37:07.767Z,93.69
2022-11-05T03:39:43.839Z,93.53
2022-11-05T03:42:17.003Z,93.88
2022-11-05T03:44:55.352Z,93.85
2022-11-05T03:47:37.084Z,94.04
2022-11-05T03:50:17.586Z,94.12
2022-11-05T03:53:28.141Z,94.09
2022-11-05T03:56:14.108Z,94.16
2022-11-05T03:58:44.855Z,94.27
2022-11-05T04:01:12.604Z,94.23
2022-11-05T04:03:39.703Z,94.24
2022-11-05T04:06:27.937Z,94.16
2022-11-05T04:09:13.619Z,94.18
2022-11-05T04:11:59.507Z,94.13
2022-11-05T04:14:26.519Z,94.08
2022-11-05T04:17:11.712Z,94.12
2022-11-05T04:20:03.290Z,94.16
2022-11-05T04:22:54.194Z,94.20
2022-11-05T04:25:23.211Z,94.24
2022-11-05T04:28:00.434Z,94.10
2022-11-05T04:30:27.493Z,94.13
2022-11-05T04:33:05.112Z,94.33
2022-11-05T04:35:45.553Z,94.65
2022-11-05T04:38:17.515Z,94.29
2022-11-05T04:40:48.210Z,94.40
2022-11-05T04:43:19.572Z,94.47
2022-11-05T04:45:46.957Z,94.50
2022-11-05T04:48:13.947Z,94.51
2022-11-05T04:50:40.956Z,94.62
2022-11-05T04:53:08.147Z,94.59
2022-11-05T04:55:35.471Z,94.44
2022-11-05T04:58:02.483Z,94.58
2022-11-05T05:00:29.502Z,94.48
2022-11-05T05:02:56.593Z,94.33
2022-11-05T05:05:24.564Z,94.89
2022-11-05T05:07:51.633Z,94.60
2022-11-05T05:10:18.798Z,94.82
2022-11-05T05:12:45.863Z,94.88
2022-11-05T05:15:13.277Z,94.94
2022-11-05T05:17:40.401Z,95.05
2022-11-05T05:20:26.155Z,95.08
2022-11-05T05:22:58.948Z,95.02
2022-11-05T05:25:25.952Z,95.10
2022-11-05T05:27:56.074Z,95.33
2022-11-05T05:30:23.150Z,95.33
2022-11-05T05:32:50.202Z,95.25
2022-11-05T05:35:17.635Z,95.42
2022-11-05T05:37:44.765Z,95.44
2022-11-05T05:40:11.880Z,95.50
2022-11-05T05:42:42.843Z,95.75
2022-11-05T05:45:12.473Z,95.79
2022-11-05T05:47:39.751Z,95.88
2022-11-05T05:50:07.124Z,95.90
2022-11-05T05:52:34.103Z,95.95
2022-11-05T05:55:01.161Z,95.91
2022-11-05T05:57:28.544Z,95.92
2022-11-05T05:59:55.583Z,96.10
2022-11-05T06:02:22.890Z,96.13
2022-11-05T06:04:50.311Z,96.29
2022-11-05T06:07:17.333Z,96.33
2022-11-05T06:09:44.468Z,96.25
2022-11-05T06:12:11.593Z,96.49
2022-11-05T06:14:38.663Z,96.42
2022-11-05T06:17:07.649Z,96.36
2022-11-05T06:19:34.607Z,96.23
2022-11-05T06:22:01.619Z,96.24
2022-11-05T06:24:29.589Z,95.86
2022-11-05T06:26:56.579Z,95.80
2022-11-05T06:29:23.709Z,95.84
2022-11-05T06:31:50.638Z,95.71
2022-11-05T06:34:17.730Z,95.48
2022-11-05T06:36:44.773Z,95.39
2022-11-05T06:39:12.961Z,95.19
2022-11-05T06:42:04.009Z,95.05
2022-11-05T06:44:27.933Z,95.06
2022-11-05T06:46:54.951Z,94.99
2022-11-05T06:49:24.657Z,94.99
2022-11-05T06:51:52.885Z,95.24
2022-11-05T06:54:20.043Z,95.11
2022-11-05T06:56:47.127Z,95.05
2022-11-05T06:59:14.292Z,94.98
2022-11-05T07:01:41.348Z,94.88
2022-11-05T07:04:08.444Z,95.00
2022-11-05T07:06:37.068Z,94.90
2022-11-05T07:09:04.888Z,95.16
2022-11-05T07:11:31.915Z,95.05
2022-11-05T07:13:59.127Z,94.97
2022-11-05T07:16:29.908Z,95.09
2022-11-05T07:18:56.891Z,95.11
2022-11-05T07:21:23.851Z,94.94
2022-11-05T07:23:50.884Z,94.89
2022-11-05T07:26:18.891Z,94.96
2022-11-05T07:28:46.109Z,95.05
2022-11-05T07:31:13.156Z,95.10
2022-11-05T07:33:40.908Z,95.15
2022-11-05T07:36:08.607Z,95.33
2022-11-05T07:38:35.663Z,95.24
2022-11-05T07:41:02.817Z,95.40
2022-11-05T07:43:29.913Z,95.53
2022-11-05T07:45:57.028Z,95.56
2022-11-05T07:48:23.937Z,95.69
2022-11-05T07:50:53.067Z,95.45
2022-11-05T07:53:21.174Z,95.53
2022-11-05T07:55:48.198Z,95.25
2022-11-05T07:58:15.271Z,95.17
2022-11-05T08:00:42.440Z,95.09
2022-11-05T08:03:16.149Z,94.90
2022-11-05T08:05:47.128Z,94.77
2022-11-05T08:08:18.355Z,94.79
2022-11-05T08:10:46.831Z,94.33
2022-11-05T08:13:14.380Z,94.15
2022-11-05T08:15:43.157Z,94.28
2022-11-05T08:18:17.306Z,94.22
2022-11-05T08:20:46.865Z,93.68
2022-11-05T08:23:14.414Z,93.55
2022-11-05T08:25:42.128Z,93.31
2022-11-05T08:28:12.800Z,93.34
2022-11-05T08:30:39.962Z,93.12
2022-11-05T08:33:11.812Z,92.95
2022-11-05T08:35:40.620Z,92.56
2022-11-05T08:38:13.558Z,92.38
2022-11-05T08:40:42.452Z,92.28
2022-11-05T08:43:12.841Z,92.04
2022-11-05T08:45:41.373Z,91.41
2022-11-05T08:48:17.665Z,91.49
2022-11-05T08:50:47.458Z,90.84
2022-11-05T08:53:15.829Z,90.47
2022-11-05T08:55:44.226Z,90.24
2022-11-05T08:58:15.303Z,89.79
2022-11-05T09:00:48.610Z,89.60
2022-11-05T09:03:26.581Z,89.19
2022-11-05T09:05:53.557Z,89.38
2022-11-05T09:08:21.886Z,89.15
2022-11-05T09:10:49.932Z,88.77
2022-11-05T09:13:19.718Z,88.63
2022-11-05T09:15:49.746Z,88.53
2022-11-05T09:18:19.277Z,88.78
2022-11-05T09:20:47.907Z,88.55
2022-11-05T09:23:15.631Z,88.20
2022-11-05T09:25:44.102Z,88.40
2022-11-05T09:28:21.419Z,88.18
2022-11-05T09:30:51.676Z,87.91
2022-11-05T09:33:23.991Z,87.95
2022-11-05T09:35:52.783Z,87.90
2022-11-05T09:38:20.064Z,87.55
2022-11-05T09:40:59.596Z,87.58
2022-11-05T09:43:38.155Z,87.36
2022-11-05T09:46:17.427Z,87.23
2022-11-05T09:48:49.666Z,86.94
2022-11-05T09:51:23.694Z,86.66
2022-11-05T09:53:53.684Z,86.12
2022-11-05T09:56:27.058Z,86.02
2022-11-05T09:59:05.245Z,85.71
2022-11-05T10:01:37.888Z,84.75
2022-11-05T10:04:16.717Z,84.54
2022-11-05T10:06:59.886Z,84.51
2022-11-05T10:09:36.897Z,84.20
2022-11-05T10:12:42.519Z,84.30
2022-11-05T10:15:09.621Z,83.97
2022-11-05T10:17:42.183Z,83.46
2022-11-05T10:20:39.150Z,83.50
2022-11-05T10:23:12.758Z,83.47
2022-11-05T10:26:10.404Z,83.76
2022-11-05T10:28:37.625Z,83.69
2022-11-05T10:31:10.022Z,82.20
2022-11-05T10:33:45.808Z,82.44
2022-11-05T10:36:25.686Z,82.19
2022-11-05T10:38:58.959Z,81.60
2022-11-05T10:41:52.676Z,81.76
2022-11-05T10:44:34.664Z,81.32
2022-11-05T10:47:29.633Z,81.38
2022-11-05T10:50:03.745Z,81.80
2022-11-05T10:53:33.959Z,81.50
2022-11-05T10:56:01.131Z,80.87
2022-11-05T10:58:34.762Z,81.31
2022-11-05T11:01:12.159Z,81.33
2022-11-05T11:03:52.716Z,81.28
2022-11-05T11:06:32.495Z,80.74
2022-11-05T11:09:05.014Z,79.01
2022-11-05T11:11:40.576Z,78.36
2022-11-05T11:14:14.626Z,78.91
2022-11-05T11:16:48.237Z,79.55
2022-11-05T11:19:37.276Z,79.36
2022-11-05T11:22:04.120Z,79.03
2022-11-05T11:24:42.779Z,77.82
2022-11-05T11:27:34.020Z,77.63
2022-11-05T11:30:03.801Z,77.41
2022-11-05T11:32:40.097Z,76.93
2022-11-05T11:35:21.290Z,76.65
2022-11-05T11:37:52.054Z,75.95
2022-11-05T11:40:30.841Z,74.59
2022-11-05T11:43:05.649Z,74.82
2022-11-05T11:45:49.581Z,74.91
2022-11-05T11:48:24.575Z,75.55
2022-11-05T11:50:52.027Z,75.21
2022-11-05T11:53:30.409Z,75.20
2022-11-05T11:56:00.384Z,75.71
2022-11-05T11:58:50.896Z,75.36
2022-11-05T12:01:54.029Z,75.18
2022-11-05T12:04:58.252Z,74.68
2022-11-05T12:07:49.291Z,74.94
2022-11-05T12:10:28.954Z,75.01
2022-11-05T12:13:20.776Z,75.16
2022-11-05T12:16:35.534Z,74.53
2022-11-05T12:19:40.447Z,74.50
2022-11-05T12:22:29.403Z,74.37
2022-11-05T12:25:57.830Z,74.53
2022-11-05T12:29:16.645Z,73.36
2022-11-05T12:32:11.164Z,74.04
2022-11-05T12:35:05.679Z,74.36
2022-11-05T12:37:38.603Z,73.79
2022-11-05T12:40:37.719Z,73.46
2022-11-05T12:43:24.185Z,73.65
2022-11-05T12:46:14.644Z,73.79
2022-11-05T12:49:01.072Z,74.31
2022-11-05T12:51:46.759Z,73.88
2022-11-05T12:54:58.953Z,73.55
2022-11-05T12:57:41.383Z,72.31
2022-11-05T13:00:10.564Z,71.99
2022-11-05T13:03:40.653Z,72.29
2022-11-05T13:06:21.433Z,72.34
2022-11-05T13:09:12.934Z,72.98
2022-11-05T13:11:58.729Z,73.41
2022-11-05T13:14:52.972Z,73.52
2022-11-05T13:17:32.040Z,73.49
2022-11-05T13:20:19.794Z,72.92
2022-11-05T13:22:55.217Z,72.49
2022-11-05T13:25:31.992Z,72.10
2022-11-05T13:28:23.499Z,72.60
2022-11-05T13:30:57.838Z,73.14
2022-11-05T13:33:34.292Z,73.60
2022-11-05T13:37:15.095Z,72.98
2022-11-05T13:39:56.401Z,73.09
2022-11-05T13:42:36.422Z,73.34
2022-11-05T13:45:09.226Z,72.78
2022-11-05T13:48:22.989Z,72.91
2022-11-05T13:50:56.271Z,73.63
2022-11-05T13:53:59.050Z,72.90
2022-11-05T13:57:11.908Z,72.87
2022-11-05T14:00:03.696Z,73.23
2022-11-05T14:03:14.856Z,73.29
2022-11-05T14:05:43.309Z,73.39
2022-11-05T14:08:19.996Z,73.67
2022-11-05T14:11:14.565Z,73.81
2022-11-05T14:13:45.458Z,74.15
2022-11-05T14:16:23.260Z,74.23
2022-11-05T14:19:18.142Z,74.05
2022-11-05T14:21:47.742Z,74.09
2022-11-05T14:24:27.076Z,74.35
2022-11-05T14:27:03.517Z,74.31
2022-11-05T14:29:43.068Z,74.43
2022-11-05T14:32:27.572Z,74.48
2022-11-05T14:35:02.331Z,74.59
2022-11-05T14:37:41.890Z,74.17
2022-11-05T14:40:43.590Z,74.29
2022-11-05T14:43:14.607Z,74.49
2022-11-05T14:45:55.468Z,74.31
2022-11-05T14:48:50.193Z,74.11
2022-11-05T14:51:35.739Z,73.75
2022-11-05T14:54:36.757Z,73.44
2022-11-05T14:57:05.127Z,73.10
2022-11-05T14:59:52.644Z,73.12
2022-11-05T15:02:38.194Z,73.42
2022-11-05T15:05:38.521Z,73.28
2022-11-05T15:08:26.602Z,73.42
2022-11-05T15:11:02.460Z,73.40
2022-11-05T15:13:49.753Z,73.59
2022-11-05T15:16:34.461Z,73.95
2022-11-05T15:19:03.187Z,74.27
2022-11-05T15:21:36.412Z,74.28
2022-11-05T15:24:04.717Z,74.29
2022-11-05T15:27:05.236Z,74.65
2022-11-05T15:29:33.844Z,74.98
2022-11-05T15:32:02.127Z,75.07
2022-11-05T15:34:33.416Z,75.36
2022-11-05T15:37:26.299Z,75.52
2022-11-05T15:39:55.727Z,75.86
2022-11-05T15:42:27.780Z,76.03
2022-11-05T15:45:00.162Z,76.12
2022-11-05T15:47:34.577Z,76.17
2022-11-05T15:50:14.049Z,76.43
2022-11-05T15:52:53.478Z,76.38
2022-11-05T15:55:25.444Z,76.70
2022-11-05T15:58:00.162Z,76.62
2022-11-05T16:00:34.021Z,76.71
2022-11-05T16:03:13.331Z,76.94
2022-11-05T16:05:47.249Z,76.95
2022-11-05T16:08:24.744Z,77.42
2022-11-05T16:11:00.477Z,77.39
2022-11-05T16:13:41.276Z,77.66
2022-11-05T16:16:14.617Z,77.78
2022-11-05T16:18:44.268Z,77.92
2022-11-05T16:21:18.975Z,77.95
2022-11-05T16:23:58.862Z,77.94
2022-11-05T16:29:35.604Z,78.23
2022-11-05T16:32:33.649Z,78.29
2022-11-05T16:35:05.312Z,78.49
2022-11-05T16:37:46.335Z,78.50
2022-11-05T16:40:19.322Z,78.66
2022-11-05T16:42:48.579Z,78.78
2022-11-05T16:45:21.499Z,78.54
2022-11-05T16:47:49.228Z,78.55
2022-11-05T16:50:27.191Z,78.53
2022-11-05T16:52:54.564Z,78.77
2022-11-05T16:55:22.273Z,78.64
2022-11-05T16:57:54.535Z,78.89
2022-11-05T17:00:24.208Z,78.95
2022-11-05T17:02:52.859Z,79.09
2022-11-05T17:05:34.340Z,78.96
2022-11-05T17:08:03.571Z,79.05
2022-11-05T17:10:31.317Z,79.25
2022-11-05T17:12:58.864Z,79.52
2022-11-05T17:15:35.775Z,79.28
2022-11-05T17:18:06.045Z,79.53
2022-11-05T17:20:48.540Z,79.64
2022-11-05T17:23:20.347Z,79.59
2022-11-05T17:25:52.212Z,79.70
2022-11-05T17:28:19.914Z,79.75
2022-11-05T17:30:52.855Z,79.74
2022-11-05T17:33:23.255Z,79.81
2022-11-05T17:35:51.859Z,79.79
2022-11-05T17:38:25.211Z,79.97
2022-11-05T17:40:53.287Z,79.90
2022-11-05T17:43:20.618Z,79.87
2022-11-05T17:45:51.944Z,79.99
2022-11-05T17:48:20.949Z,80.18
2022-11-05T17:50:50.547Z,80.25
2022-11-05T17:53:19.426Z,80.06
2022-11-05T17:55:47.548Z,80.13
2022-11-05T17:58:15.409Z,80.33
2022-11-05T18:00:43.870Z,80.17
2022-11-05T18:03:12.482Z,80.33
2022-11-05T18:05:41.542Z,80.35
2022-11-05T18:08:09.574Z,80.44
2022-11-05T18:10:38.995Z,80.42
2022-11-05T18:13:09.182Z,80.67
2022-11-05T18:15:40.866Z,80.84
2022-11-05T18:18:08.833Z,80.87
2022-11-05T18:20:37.491Z,81.14
2022-11-05T18:23:04.642Z,81.04
2022-11-05T18:25:31.721Z,81.02
2022-11-05T18:27:58.719Z,81.00
2022-11-05T18:30:27.054Z,81.27
2022-11-05T18:32:54.060Z,81.08
2022-11-05T18:35:21.075Z,81.18
2022-11-05T18:37:48.129Z,81.13
2022-11-05T18:40:15.350Z,81.18
2022-11-05T18:42:42.643Z,81.15
2022-11-05T18:45:10.854Z,81.11
2022-11-05T18:47:37.918Z,81.29
2022-11-05T18:50:07.801Z,81.25
2022-11-05T18:52:36.102Z,81.31
2022-11-05T18:55:03.421Z,81.26
2022-11-05T18:57:32.686Z,81.30
2022-11-05T18:59:59.835Z,81.38
2022-11-05T19:02:27.201Z,81.39
2022-11-05T19:07:41.555Z,81.35
2022-11-05T19:10:09.465Z,81.40
2022-11-05T19:12:36.473Z,81.29
2022-11-05T19:15:04.961Z,81.45
2022-11-05T19:17:34.845Z,81.46
2022-11-05T19:20:02.438Z,81.42
2022-11-05T19:22:29.623Z,81.58
2022-11-05T19:24:56.614Z,81.37
2022-11-05T19:27:23.752Z,81.31
2022-11-05T19:29:51.173Z,81.42
2022-11-05T19:32:18.212Z,81.22
2022-11-05T19:34:45.306Z,81.34
2022-11-05T19:37:12.421Z,81.07
2022-11-05T19:39:41.127Z,80.99
2022-11-05T19:42:08.103Z,80.81
2022-11-05T19:44:35.159Z,80.93
2022-11-05T19:47:02.205Z,80.78
2022-11-05T19:49:29.243Z,80.73
2022-11-05T19:51:56.283Z,80.57
2022-11-05T19:54:23.427Z,80.25
2022-11-05T19:56:51.807Z,80.30
2022-11-05T19:59:19.299Z,80.42
2022-11-05T20:01:46.615Z,80.37
2022-11-05T20:04:13.806Z,80.67
2022-11-05T20:06:41.010Z,80.72
2022-11-05T20:09:22.091Z,80.76
2022-11-05T20:11:54.487Z,80.40
2022-11-05T20:14:25.057Z,80.32
2022-11-05T20:16:53.323Z,80.13
2022-11-05T20:19:22.436Z,80.37
2022-11-05T20:21:50.704Z,80.47
2022-11-05T20:24:25.459Z,80.69
2022-11-05T20:26:55.074Z,80.81
2022-11-05T20:29:26.057Z,81.14
2022-11-05T20:31:55.119Z,81.09
2022-11-05T20:34:22.158Z,81.29
2022-11-05T20:36:49.290Z,81.52
2022-11-05T20:39:17.683Z,81.76
2022-11-05T20:41:44.707Z,82.08
2022-11-05T20:44:12.981Z,82.23
2022-11-05T20:46:40.159Z,82.11
2022-11-05T20:49:09.949Z,82.13
2022-11-05T20:51:38.085Z,82.24
2022-11-05T20:54:05.650Z,82.33
2022-11-05T20:56:37.402Z,82.17
2022-11-05T20:59:05.805Z,82.34
2022-11-05T21:01:34.371Z,82.49
2022-11-05T21:04:03.102Z,82.69
2022-11-05T21:06:31.431Z,82.45
2022-11-05T21:08:58.682Z,82.53
2022-11-05T21:11:49.946Z,82.49
2022-11-05T21:14:18.015Z,82.44
2022-11-05T21:16:45.053Z,82.53
2022-11-05T21:19:12.079Z,82.34
2022-11-05T21:21:41.229Z,82.53
2022-11-05T21:24:08.497Z,82.44
2022-11-05T21:26:35.466Z,82.27
2022-11-05T21:29:02.545Z,82.48
2022-11-05T21:31:29.626Z,82.27
2022-11-05T21:33:56.659Z,82.53
2022-11-05T21:36:23.637Z,82.37
2022-11-05T21:38:50.718Z,82.41
2022-11-05T21:41:19.814Z,82.45
2022-11-05T21:43:46.831Z,82.38
2022-11-05T21:46:13.940Z,82.34
2022-11-05T21:48:41.183Z,82.48
2022-11-05T21:51:29.291Z,82.38
2022-11-05T21:54:14.974Z,82.32
2022-11-05T21:57:05.987Z,82.28
2022-11-05T21:59:48.585Z,82.28
2022-11-05T22:02:22.405Z,82.38
2022-11-05T22:04:53.439Z,82.28
2022-11-05T22:07:28.997Z,82.24
2022-11-05T22:09:56.544Z,82.27
2022-11-05T22:12:24.971Z,82.11
2022-11-05T22:14:52.496Z,82.03
2022-11-05T22:17:20.773Z,82.10
2022-11-05T22:19:47.916Z,82.11
2022-11-05T22:22:15.031Z,82.36
2022-11-05T22:24:44.265Z,82.31
2022-11-05T22:27:18.057Z,82.55
2022-11-05T22:29:46.102Z,82.65
2022-11-05T22:32:14.302Z,82.90
2022-11-05T22:34:42.490Z,83.03
2022-11-05T22:37:12.431Z,83.40
2022-11-05T22:39:39.619Z,83.64
2022-11-05T22:42:08.910Z,83.55
2022-11-05T22:44:36.782Z,84.08
2022-11-05T22:47:04.025Z,83.97
2022-11-05T22:49:31.455Z,83.95
2022-11-05T22:51:59.899Z,84.07
2022-11-05T22:54:26.925Z,84.17
2022-11-05T22:56:53.891Z,84.37
2022-11-05T22:59:21.050Z,84.37
2022-11-05T23:01:48.279Z,84.38
2022-11-05T23:04:16.221Z,84.42
2022-11-05T23:07:02.340Z,84.66
2022-11-05T23:09:53.417Z,84.81
2022-11-05T23:12:37.946Z,84.81
2022-11-05T23:15:07.984Z,84.82
2022-11-05T23:17:54.795Z,84.75
2022-11-05T23:20:42.036Z,84.82
2022-11-05T23:23:31.661Z,84.85
2022-11-05T23:26:21.016Z,84.80
2022-11-05T23:28:48.061Z,84.81
2022-11-05T23:31:33.949Z,85.07
2022-11-05T23:34:00.994Z,85.39
2022-11-05T23:36:46.769Z,85.25
2022-11-05T23:39:13.774Z,85.27
2022-11-05T23:41:59.318Z,85.63
2022-11-05T23:44:44.694Z,85.75
2022-11-05T23:47:30.544Z,85.81
2022-11-05T23:49:57.530Z,85.96
2022-11-05T23:52:24.518Z,86.01
2022-11-05T23:54:51.454Z,86.00
2022-11-05T23:57:18.459Z,85.72
2022-11-05T23:59:45.445Z,85.89
